sensor_id;sensor_type;location;lat;lon;timestamp;temperature;humidity
37530;DHT22;23374;52.758;6.872;2023-04-24T00:00:28;10.90;99.90
37530;DHT22;23374;52.758;6.872;2023-04-24T00:02:49;10.90;99.90
37530;DHT22;23374;52.758;6.872;2023-04-24T00:05:11;10.80;99.90
37530;DHT22;23374;52.758;6.872;2023-04-24T00:08:55;10.80;99.90
37530;DHT22;23374;52.758;6.872;2023-04-24T00:11:15;10.70;99.90
37530;DHT22;23374;52.758;6.872;2023-04-24T00:13:36;10.70;99.90
37530;DHT22;23374;52.758;6.872;2023-04-24T00:15:57;10.60;99.90
37530;DHT22;23374;52.758;6.872;2023-04-24T00:18:18;10.60;99.90
37530;DHT22;23374;52.758;6.872;2023-04-24T00:20:39;10.60;99.90
37530;DHT22;23374;52.758;6.872;2023-04-24T00:23:00;10.50;99.90
37530;DHT22;23374;52.758;6.872;2023-04-24T00:25:21;10.40;99.90
37530;DHT22;23374;52.758;6.872;2023-04-24T00:27:42;10.40;99.90
37530;DHT22;23374;52.758;6.872;2023-04-24T00:30:03;10.40;99.90
37530;DHT22;23374;52.758;6.872;2023-04-24T00:32:24;10.40;99.90
37530;DHT22;23374;52.758;6.872;2023-04-24T00:34:45;10.40;99.90
37530;DHT22;23374;52.758;6.872;2023-04-24T00:37:05;10.30;99.90
37530;DHT22;23374;52.758;6.872;2023-04-24T00:39:26;10.30;99.90
37530;DHT22;23374;52.758;6.872;2023-04-24T00:41:47;10.30;99.90
37530;DHT22;23374;52.758;6.872;2023-04-24T00:44:08;10.30;99.90
37530;DHT22;23374;52.758;6.872;2023-04-24T00:46:29;10.20;99.90
37530;DHT22;23374;52.758;6.872;2023-04-24T00:48:50;10.10;99.90
37530;DHT22;23374;52.758;6.872;2023-04-24T00:51:11;10.10;99.90
37530;DHT22;23374;52.758;6.872;2023-04-24T00:53:32;10.10;99.90
37530;DHT22;23374;52.758;6.872;2023-04-24T00:55:53;10.00;99.90
37530;DHT22;23374;52.758;6.872;2023-04-24T00:58:15;10.00;99.90
37530;DHT22;23374;52.758;6.872;2023-04-24T01:00:36;10.00;99.90
37530;DHT22;23374;52.758;6.872;2023-04-24T01:05:20;10.00;99.90
37530;DHT22;23374;52.758;6.872;2023-04-24T01:08:54;10.00;99.90
37530;DHT22;23374;52.758;6.872;2023-04-24T01:11:15;10.00;99.90
37530;DHT22;23374;52.758;6.872;2023-04-24T01:13:35;10.00;99.90
37530;DHT22;23374;52.758;6.872;2023-04-24T01:15:56;10.00;99.90
37530;DHT22;23374;52.758;6.872;2023-04-24T01:18:16;9.90;99.90
37530;DHT22;23374;52.758;6.872;2023-04-24T01:20:39;9.90;99.90
37530;DHT22;23374;52.758;6.872;2023-04-24T01:22:59;9.90;99.90
37530;DHT22;23374;52.758;6.872;2023-04-24T01:25:20;9.90;99.90
37530;DHT22;23374;52.758;6.872;2023-04-24T01:27:40;9.80;99.90
37530;DHT22;23374;52.758;6.872;2023-04-24T01:30:01;9.80;99.90
37530;DHT22;23374;52.758;6.872;2023-04-24T01:32:22;9.80;99.90
37530;DHT22;23374;52.758;6.872;2023-04-24T01:34:43;9.80;99.90
37530;DHT22;23374;52.758;6.872;2023-04-24T01:37:03;9.80;99.90
37530;DHT22;23374;52.758;6.872;2023-04-24T01:39:25;9.80;99.90
37530;DHT22;23374;52.758;6.872;2023-04-24T01:41:48;9.80;99.90
37530;DHT22;23374;52.758;6.872;2023-04-24T01:44:09;9.80;99.90
37530;DHT22;23374;52.758;6.872;2023-04-24T01:46:30;9.80;99.90
37530;DHT22;23374;52.758;6.872;2023-04-24T01:48:52;9.80;99.90
37530;DHT22;23374;52.758;6.872;2023-04-24T01:51:12;9.80;99.90
37530;DHT22;23374;52.758;6.872;2023-04-24T01:53:32;9.80;99.90
37530;DHT22;23374;52.758;6.872;2023-04-24T01:55:53;9.80;99.90
37530;DHT22;23374;52.758;6.872;2023-04-24T01:58:13;9.80;99.90
37530;DHT22;23374;52.758;6.872;2023-04-24T02:00:34;9.80;99.90
37530;DHT22;23374;52.758;6.872;2023-04-24T02:02:54;9.80;99.90
37530;DHT22;23374;52.758;6.872;2023-04-24T02:05:14;9.80;99.90
37530;DHT22;23374;52.758;6.872;2023-04-24T02:08:59;9.80;99.90
37530;DHT22;23374;52.758;6.872;2023-04-24T02:11:19;9.80;99.90
37530;DHT22;23374;52.758;6.872;2023-04-24T02:13:40;9.80;99.90
37530;DHT22;23374;52.758;6.872;2023-04-24T02:16:01;9.80;99.90
37530;DHT22;23374;52.758;6.872;2023-04-24T02:18:21;9.90;99.90
37530;DHT22;23374;52.758;6.872;2023-04-24T02:20:42;9.80;99.90
37530;DHT22;23374;52.758;6.872;2023-04-24T02:23:03;9.90;99.90
37530;DHT22;23374;52.758;6.872;2023-04-24T02:25:23;9.90;99.90
37530;DHT22;23374;52.758;6.872;2023-04-24T02:27:43;9.90;99.90
37530;DHT22;23374;52.758;6.872;2023-04-24T02:30:05;10.00;99.90
37530;DHT22;23374;52.758;6.872;2023-04-24T02:32:26;10.00;99.90
37530;DHT22;23374;52.758;6.872;2023-04-24T02:34:46;10.00;99.90
37530;DHT22;23374;52.758;6.872;2023-04-24T02:37:07;10.00;99.90
37530;DHT22;23374;52.758;6.872;2023-04-24T02:39:28;10.00;99.90
37530;DHT22;23374;52.758;6.872;2023-04-24T02:41:48;10.00;99.90
37530;DHT22;23374;52.758;6.872;2023-04-24T02:44:08;10.00;99.90
37530;DHT22;23374;52.758;6.872;2023-04-24T02:46:28;10.00;99.90
37530;DHT22;23374;52.758;6.872;2023-04-24T02:48:57;10.00;99.90
37530;DHT22;23374;52.758;6.872;2023-04-24T02:51:17;10.00;70.50
37530;DHT22;23374;52.758;6.872;2023-04-24T02:53:38;10.00;58.20
37530;DHT22;23374;52.758;6.872;2023-04-24T02:55:58;10.00;42.70
37530;DHT22;23374;52.758;6.872;2023-04-24T02:58:18;10.00;48.70
37530;DHT22;23374;52.758;6.872;2023-04-24T03:00:39;10.00;43.50
37530;DHT22;23374;52.758;6.872;2023-04-24T03:03:00;10.00;1.00
37530;DHT22;23374;52.758;6.872;2023-04-24T03:05:20;10.00;7.20
37530;DHT22;23374;52.758;6.872;2023-04-24T03:09:03;10.10;18.90
37530;DHT22;23374;52.758;6.872;2023-04-24T03:11:24;10.00;1.00
37530;DHT22;23374;52.758;6.872;2023-04-24T03:13:45;10.00;5.90
37530;DHT22;23374;52.758;6.872;2023-04-24T03:16:05;10.00;34.30
37530;DHT22;23374;52.758;6.872;2023-04-24T03:18:25;10.00;46.20
37530;DHT22;23374;52.758;6.872;2023-04-24T03:20:46;10.00;81.60
37530;DHT22;23374;52.758;6.872;2023-04-24T03:23:07;9.90;99.90
37530;DHT22;23374;52.758;6.872;2023-04-24T03:25:27;9.90;99.90
37530;DHT22;23374;52.758;6.872;2023-04-24T03:27:47;9.90;99.90
37530;DHT22;23374;52.758;6.872;2023-04-24T03:30:08;9.90;99.90
37530;DHT22;23374;52.758;6.872;2023-04-24T03:32:28;9.80;99.90
37530;DHT22;23374;52.758;6.872;2023-04-24T03:34:50;9.80;99.90
37530;DHT22;23374;52.758;6.872;2023-04-24T03:37:10;9.80;99.90
37530;DHT22;23374;52.758;6.872;2023-04-24T03:39:30;9.70;99.90
37530;DHT22;23374;52.758;6.872;2023-04-24T03:41:50;9.70;99.90
37530;DHT22;23374;52.758;6.872;2023-04-24T03:44:10;9.70;99.90
37530;DHT22;23374;52.758;6.872;2023-04-24T03:46:31;9.70;99.90
37530;DHT22;23374;52.758;6.872;2023-04-24T03:48:51;9.70;99.90
37530;DHT22;23374;52.758;6.872;2023-04-24T03:51:12;9.70;99.90
37530;DHT22;23374;52.758;6.872;2023-04-24T03:53:32;9.60;99.90
37530;DHT22;23374;52.758;6.872;2023-04-24T03:55:53;9.60;99.90
37530;DHT22;23374;52.758;6.872;2023-04-24T03:58:14;9.70;99.90
37530;DHT22;23374;52.758;6.872;2023-04-24T04:00:35;9.70;99.90
37530;DHT22;23374;52.758;6.872;2023-04-24T04:02:55;9.70;99.90
37530;DHT22;23374;52.758;6.872;2023-04-24T04:05:15;9.70;99.90
37530;DHT22;23374;52.758;6.872;2023-04-24T04:07:35;9.70;99.90
37530;DHT22;23374;52.758;6.872;2023-04-24T04:09:56;9.70;99.90
37530;DHT22;23374;52.758;6.872;2023-04-24T04:12:16;9.70;99.90
37530;DHT22;23374;52.758;6.872;2023-04-24T04:14:36;9.60;99.90
37530;DHT22;23374;52.758;6.872;2023-04-24T04:16:57;9.70;99.90
37530;DHT22;23374;52.758;6.872;2023-04-24T04:19:17;9.70;99.90
37530;DHT22;23374;52.758;6.872;2023-04-24T04:21:37;9.70;99.90
37530;DHT22;23374;52.758;6.872;2023-04-24T04:23:58;9.70;99.90
37530;DHT22;23374;52.758;6.872;2023-04-24T04:26:19;9.70;99.90
37530;DHT22;23374;52.758;6.872;2023-04-24T04:28:41;9.70;99.90
37530;DHT22;23374;52.758;6.872;2023-04-24T04:31:02;9.70;99.90
37530;DHT22;23374;52.758;6.872;2023-04-24T04:33:23;9.60;99.90
37530;DHT22;23374;52.758;6.872;2023-04-24T04:35:44;9.60;99.90
37530;DHT22;23374;52.758;6.872;2023-04-24T04:38:08;9.60;99.90
37530;DHT22;23374;52.758;6.872;2023-04-24T04:40:30;9.60;99.90
37530;DHT22;23374;52.758;6.872;2023-04-24T04:42:51;9.60;99.90
37530;DHT22;23374;52.758;6.872;2023-04-24T04:45:13;9.60;99.90
37530;DHT22;23374;52.758;6.872;2023-04-24T04:47:37;9.50;99.90
37530;DHT22;23374;52.758;6.872;2023-04-24T04:49:57;9.50;99.90
37530;DHT22;23374;52.758;6.872;2023-04-24T04:52:18;9.60;99.90
37530;DHT22;23374;52.758;6.872;2023-04-24T04:54:39;9.50;99.90
37530;DHT22;23374;52.758;6.872;2023-04-24T04:56:59;9.50;99.90
37530;DHT22;23374;52.758;6.872;2023-04-24T04:59:20;9.50;99.90
37530;DHT22;23374;52.758;6.872;2023-04-24T05:01:41;9.50;99.90
37530;DHT22;23374;52.758;6.872;2023-04-24T05:04:01;9.50;99.90
37530;DHT22;23374;52.758;6.872;2023-04-24T05:06:22;9.50;99.90
37530;DHT22;23374;52.758;6.872;2023-04-24T05:08:42;9.50;99.90
37530;DHT22;23374;52.758;6.872;2023-04-24T05:11:03;9.60;99.90
37530;DHT22;23374;52.758;6.872;2023-04-24T05:13:23;9.60;99.90
37530;DHT22;23374;52.758;6.872;2023-04-24T05:15:43;9.60;99.90
37530;DHT22;23374;52.758;6.872;2023-04-24T05:18:04;9.60;99.90
37530;DHT22;23374;52.758;6.872;2023-04-24T05:20:24;9.70;99.90
37530;DHT22;23374;52.758;6.872;2023-04-24T05:22:45;9.70;99.90
37530;DHT22;23374;52.758;6.872;2023-04-24T05:25:06;9.70;99.90
37530;DHT22;23374;52.758;6.872;2023-04-24T05:27:26;9.70;99.90
37530;DHT22;23374;52.758;6.872;2023-04-24T05:29:46;9.70;99.90
37530;DHT22;23374;52.758;6.872;2023-04-24T05:32:06;9.70;99.90
37530;DHT22;23374;52.758;6.872;2023-04-24T05:34:26;9.70;99.90
37530;DHT22;23374;52.758;6.872;2023-04-24T05:36:47;9.70;99.90
37530;DHT22;23374;52.758;6.872;2023-04-24T05:39:07;9.70;99.90
37530;DHT22;23374;52.758;6.872;2023-04-24T05:41:28;9.70;99.90
37530;DHT22;23374;52.758;6.872;2023-04-24T05:43:48;9.70;99.90
37530;DHT22;23374;52.758;6.872;2023-04-24T05:46:09;9.70;99.90
37530;DHT22;23374;52.758;6.872;2023-04-24T05:48:29;9.70;99.90
37530;DHT22;23374;52.758;6.872;2023-04-24T05:50:50;9.70;99.90
37530;DHT22;23374;52.758;6.872;2023-04-24T05:53:12;9.70;99.90
37530;DHT22;23374;52.758;6.872;2023-04-24T05:55:32;9.70;99.90
37530;DHT22;23374;52.758;6.872;2023-04-24T05:57:53;9.70;99.90
37530;DHT22;23374;52.758;6.872;2023-04-24T06:00:14;9.70;99.90
37530;DHT22;23374;52.758;6.872;2023-04-24T06:02:34;9.70;99.90
37530;DHT22;23374;52.758;6.872;2023-04-24T06:04:55;9.70;99.90
37530;DHT22;23374;52.758;6.872;2023-04-24T06:07:15;9.70;99.90
37530;DHT22;23374;52.758;6.872;2023-04-24T06:09:35;9.60;99.90
37530;DHT22;23374;52.758;6.872;2023-04-24T06:11:56;9.60;99.90
37530;DHT22;23374;52.758;6.872;2023-04-24T06:14:17;9.60;99.90
37530;DHT22;23374;52.758;6.872;2023-04-24T06:16:37;9.50;99.90
37530;DHT22;23374;52.758;6.872;2023-04-24T06:18:58;9.50;99.90
37530;DHT22;23374;52.758;6.872;2023-04-24T06:21:19;9.50;99.90
37530;DHT22;23374;52.758;6.872;2023-04-24T06:23:39;9.50;99.90
37530;DHT22;23374;52.758;6.872;2023-04-24T06:26:00;9.50;99.90
37530;DHT22;23374;52.758;6.872;2023-04-24T06:28:20;9.50;99.90
37530;DHT22;23374;52.758;6.872;2023-04-24T06:30:41;9.40;99.90
37530;DHT22;23374;52.758;6.872;2023-04-24T06:33:01;9.40;99.90
37530;DHT22;23374;52.758;6.872;2023-04-24T06:35:22;9.40;99.90
37530;DHT22;23374;52.758;6.872;2023-04-24T06:37:43;9.40;99.90
37530;DHT22;23374;52.758;6.872;2023-04-24T06:40:05;9.40;99.90
37530;DHT22;23374;52.758;6.872;2023-04-24T06:42:26;9.40;99.90
37530;DHT22;23374;52.758;6.872;2023-04-24T06:44:46;9.30;99.90
37530;DHT22;23374;52.758;6.872;2023-04-24T06:47:08;9.30;99.90
37530;DHT22;23374;52.758;6.872;2023-04-24T06:49:28;9.40;99.90
37530;DHT22;23374;52.758;6.872;2023-04-24T06:51:48;9.30;99.90
37530;DHT22;23374;52.758;6.872;2023-04-24T06:54:09;9.30;99.90
37530;DHT22;23374;52.758;6.872;2023-04-24T06:56:29;9.30;99.90
37530;DHT22;23374;52.758;6.872;2023-04-24T06:58:51;9.30;99.90
37530;DHT22;23374;52.758;6.872;2023-04-24T07:01:11;9.30;99.90
37530;DHT22;23374;52.758;6.872;2023-04-24T07:03:31;9.40;99.90
37530;DHT22;23374;52.758;6.872;2023-04-24T07:05:51;9.40;99.90
37530;DHT22;23374;52.758;6.872;2023-04-24T07:08:13;9.40;99.90
37530;DHT22;23374;52.758;6.872;2023-04-24T07:10:34;9.40;99.90
37530;DHT22;23374;52.758;6.872;2023-04-24T07:12:55;9.30;99.90
37530;DHT22;23374;52.758;6.872;2023-04-24T07:15:16;9.30;99.90
37530;DHT22;23374;52.758;6.872;2023-04-24T07:17:36;9.30;99.90
37530;DHT22;23374;52.758;6.872;2023-04-24T07:19:58;9.30;99.90
37530;DHT22;23374;52.758;6.872;2023-04-24T07:22:18;9.30;99.90
37530;DHT22;23374;52.758;6.872;2023-04-24T07:24:38;9.30;99.90
37530;DHT22;23374;52.758;6.872;2023-04-24T07:26:59;9.30;99.90
37530;DHT22;23374;52.758;6.872;2023-04-24T07:29:21;9.30;99.90
37530;DHT22;23374;52.758;6.872;2023-04-24T07:31:41;9.30;99.90
37530;DHT22;23374;52.758;6.872;2023-04-24T07:34:01;9.30;99.90
37530;DHT22;23374;52.758;6.872;2023-04-24T07:36:21;9.40;99.90
37530;DHT22;23374;52.758;6.872;2023-04-24T07:38:46;9.50;99.90
37530;DHT22;23374;52.758;6.872;2023-04-24T07:41:06;9.50;99.90
37530;DHT22;23374;52.758;6.872;2023-04-24T07:43:27;9.60;99.90
37530;DHT22;23374;52.758;6.872;2023-04-24T07:45:47;9.70;99.90
37530;DHT22;23374;52.758;6.872;2023-04-24T07:48:08;9.70;99.90
37530;DHT22;23374;52.758;6.872;2023-04-24T07:50:29;9.80;99.90
37530;DHT22;23374;52.758;6.872;2023-04-24T07:52:50;9.80;99.90
37530;DHT22;23374;52.758;6.872;2023-04-24T07:55:10;9.80;99.90
37530;DHT22;23374;52.758;6.872;2023-04-24T07:57:31;9.90;99.90
37530;DHT22;23374;52.758;6.872;2023-04-24T07:59:51;9.90;99.90
37530;DHT22;23374;52.758;6.872;2023-04-24T08:02:12;9.90;99.90
37530;DHT22;23374;52.758;6.872;2023-04-24T08:04:32;9.90;99.90
37530;DHT22;23374;52.758;6.872;2023-04-24T08:06:53;10.00;99.90
37530;DHT22;23374;52.758;6.872;2023-04-24T08:09:14;10.00;99.90
37530;DHT22;23374;52.758;6.872;2023-04-24T08:11:34;10.00;99.90
37530;DHT22;23374;52.758;6.872;2023-04-24T08:13:59;10.00;99.90
37530;DHT22;23374;52.758;6.872;2023-04-24T08:16:20;10.00;99.90
37530;DHT22;23374;52.758;6.872;2023-04-24T08:18:40;10.00;99.90
37530;DHT22;23374;52.758;6.872;2023-04-24T08:21:01;10.00;99.90
37530;DHT22;23374;52.758;6.872;2023-04-24T08:23:21;10.00;99.90
37530;DHT22;23374;52.758;6.872;2023-04-24T08:25:42;10.00;99.90
37530;DHT22;23374;52.758;6.872;2023-04-24T08:28:05;10.10;99.90
37530;DHT22;23374;52.758;6.872;2023-04-24T08:30:25;10.10;99.90
37530;DHT22;23374;52.758;6.872;2023-04-24T08:32:46;10.10;99.90
37530;DHT22;23374;52.758;6.872;2023-04-24T08:35:07;10.10;99.90
37530;DHT22;23374;52.758;6.872;2023-04-24T08:37:31;10.10;99.90
37530;DHT22;23374;52.758;6.872;2023-04-24T08:39:51;10.10;99.90
37530;DHT22;23374;52.758;6.872;2023-04-24T08:42:13;10.00;99.90
37530;DHT22;23374;52.758;6.872;2023-04-24T08:44:36;10.00;99.90
37530;DHT22;23374;52.758;6.872;2023-04-24T08:46:56;10.00;99.90
37530;DHT22;23374;52.758;6.872;2023-04-24T08:49:17;9.90;99.90
37530;DHT22;23374;52.758;6.872;2023-04-24T08:51:39;9.90;99.90
37530;DHT22;23374;52.758;6.872;2023-04-24T08:53:59;9.90;99.90
37530;DHT22;23374;52.758;6.872;2023-04-24T08:56:22;9.90;99.90
37530;DHT22;23374;52.758;6.872;2023-04-24T08:58:44;9.90;99.90
37530;DHT22;23374;52.758;6.872;2023-04-24T09:01:05;9.90;99.90
37530;DHT22;23374;52.758;6.872;2023-04-24T09:03:27;9.80;99.90
37530;DHT22;23374;52.758;6.872;2023-04-24T09:05:49;9.80;99.90
37530;DHT22;23374;52.758;6.872;2023-04-24T09:08:10;9.80;99.90
37530;DHT22;23374;52.758;6.872;2023-04-24T09:10:32;9.80;99.90
37530;DHT22;23374;52.758;6.872;2023-04-24T09:12:56;9.70;99.90
37530;DHT22;23374;52.758;6.872;2023-04-24T09:15:19;9.70;99.90
37530;DHT22;23374;52.758;6.872;2023-04-24T09:17:44;9.70;99.90
37530;DHT22;23374;52.758;6.872;2023-04-24T09:20:06;9.70;99.90
37530;DHT22;23374;52.758;6.872;2023-04-24T09:22:30;9.70;99.90
37530;DHT22;23374;52.758;6.872;2023-04-24T09:25:07;9.70;99.90
37530;DHT22;23374;52.758;6.872;2023-04-24T09:27:28;9.70;99.90
37530;DHT22;23374;52.758;6.872;2023-04-24T09:29:56;9.70;99.90
37530;DHT22;23374;52.758;6.872;2023-04-24T09:32:21;9.70;99.90
37530;DHT22;23374;52.758;6.872;2023-04-24T09:34:42;9.70;99.90
37530;DHT22;23374;52.758;6.872;2023-04-24T09:37:04;9.70;99.90
37530;DHT22;23374;52.758;6.872;2023-04-24T09:39:25;9.70;99.90
37530;DHT22;23374;52.758;6.872;2023-04-24T09:41:56;9.60;99.90
37530;DHT22;23374;52.758;6.872;2023-04-24T09:44:23;9.50;99.90
37530;DHT22;23374;52.758;6.872;2023-04-24T09:46:53;9.50;99.90
37530;DHT22;23374;52.758;6.872;2023-04-24T09:49:16;9.40;99.90
37530;DHT22;23374;52.758;6.872;2023-04-24T09:51:38;9.40;99.90
37530;DHT22;23374;52.758;6.872;2023-04-24T09:53:58;9.40;99.90
37530;DHT22;23374;52.758;6.872;2023-04-24T09:56:18;9.30;99.90
37530;DHT22;23374;52.758;6.872;2023-04-24T09:58:40;9.30;99.90
37530;DHT22;23374;52.758;6.872;2023-04-24T10:01:00;9.30;99.90
37530;DHT22;23374;52.758;6.872;2023-04-24T10:03:20;9.30;99.90
37530;DHT22;23374;52.758;6.872;2023-04-24T10:05:41;9.30;99.90
37530;DHT22;23374;52.758;6.872;2023-04-24T10:08:08;9.30;99.90
37530;DHT22;23374;52.758;6.872;2023-04-24T10:10:31;9.30;99.90
37530;DHT22;23374;52.758;6.872;2023-04-24T10:12:51;9.20;99.90
37530;DHT22;23374;52.758;6.872;2023-04-24T10:15:13;9.20;99.90
37530;DHT22;23374;52.758;6.872;2023-04-24T10:17:34;9.20;99.90
37530;DHT22;23374;52.758;6.872;2023-04-24T10:19:56;9.20;99.90
37530;DHT22;23374;52.758;6.872;2023-04-24T10:22:17;9.20;99.90
37530;DHT22;23374;52.758;6.872;2023-04-24T10:24:38;9.20;99.90
37530;DHT22;23374;52.758;6.872;2023-04-24T10:27:00;9.20;99.90
37530;DHT22;23374;52.758;6.872;2023-04-24T10:29:21;9.30;99.90
37530;DHT22;23374;52.758;6.872;2023-04-24T10:31:43;9.30;99.90
37530;DHT22;23374;52.758;6.872;2023-04-24T10:34:07;9.30;99.90
37530;DHT22;23374;52.758;6.872;2023-04-24T10:36:28;9.30;99.90
37530;DHT22;23374;52.758;6.872;2023-04-24T10:38:53;9.30;99.90
37530;DHT22;23374;52.758;6.872;2023-04-24T10:41:15;9.30;99.90
37530;DHT22;23374;52.758;6.872;2023-04-24T10:43:40;9.30;99.90
37530;DHT22;23374;52.758;6.872;2023-04-24T10:46:05;9.30;99.90
37530;DHT22;23374;52.758;6.872;2023-04-24T10:48:29;9.40;99.90
37530;DHT22;23374;52.758;6.872;2023-04-24T10:50:54;9.40;99.90
37530;DHT22;23374;52.758;6.872;2023-04-24T10:53:20;9.40;99.90
37530;DHT22;23374;52.758;6.872;2023-04-24T10:56:06;9.40;99.90
37530;DHT22;23374;52.758;6.872;2023-04-24T10:58:49;9.40;99.90
37530;DHT22;23374;52.758;6.872;2023-04-24T11:01:29;9.40;99.90
37530;DHT22;23374;52.758;6.872;2023-04-24T11:04:01;9.30;99.90
37530;DHT22;23374;52.758;6.872;2023-04-24T11:06:37;9.30;99.90
37530;DHT22;23374;52.758;6.872;2023-04-24T11:09:06;9.20;99.90
37530;DHT22;23374;52.758;6.872;2023-04-24T11:11:29;9.10;99.90
37530;DHT22;23374;52.758;6.872;2023-04-24T11:14:03;9.00;99.90
37530;DHT22;23374;52.758;6.872;2023-04-24T11:16:44;9.10;99.90
37530;DHT22;23374;52.758;6.872;2023-04-24T11:19:21;9.10;99.00
37530;DHT22;23374;52.758;6.872;2023-04-24T11:22:23;9.00;40.00
37530;DHT22;23374;52.758;6.872;2023-04-24T11:24:53;9.10;60.00
37530;DHT22;23374;52.758;6.872;2023-04-24T11:27:21;9.10;5.00
37530;DHT22;23374;52.758;6.872;2023-04-24T11:30:07;9.20;9.20
37530;DHT22;23374;52.758;6.872;2023-04-24T11:32:39;9.20;44.60
37530;DHT22;23374;52.758;6.872;2023-04-24T11:35:18;9.30;15.10
37530;DHT22;23374;52.758;6.872;2023-04-24T11:37:41;9.30;1.00
37530;DHT22;23374;52.758;6.872;2023-04-24T11:40:03;9.30;1.00
37530;DHT22;23374;52.758;6.872;2023-04-24T11:42:24;9.30;1.00
37530;DHT22;23374;52.758;6.872;2023-04-24T11:44:46;9.30;1.00
37530;DHT22;23374;52.758;6.872;2023-04-24T11:47:08;9.20;1.00
37530;DHT22;23374;52.758;6.872;2023-04-24T11:49:28;9.20;1.00
37530;DHT22;23374;52.758;6.872;2023-04-24T11:51:49;9.20;1.00
37530;DHT22;23374;52.758;6.872;2023-04-24T11:54:10;9.20;1.00
37530;DHT22;23374;52.758;6.872;2023-04-24T11:56:30;9.30;1.00
37530;DHT22;23374;52.758;6.872;2023-04-24T11:58:53;9.30;1.00
37530;DHT22;23374;52.758;6.872;2023-04-24T12:01:16;9.40;1.00
37530;DHT22;23374;52.758;6.872;2023-04-24T12:03:37;9.50;1.00
37530;DHT22;23374;52.758;6.872;2023-04-24T12:06:11;9.50;1.00
37530;DHT22;23374;52.758;6.872;2023-04-24T12:08:32;9.60;1.00
37530;DHT22;23374;52.758;6.872;2023-04-24T12:10:52;9.70;1.00
37530;DHT22;23374;52.758;6.872;2023-04-24T12:13:13;9.80;1.00
37530;DHT22;23374;52.758;6.872;2023-04-24T12:15:33;9.90;99.90
37530;DHT22;23374;52.758;6.872;2023-04-24T12:17:55;9.90;99.90
37530;DHT22;23374;52.758;6.872;2023-04-24T12:20:15;10.00;99.90
37530;DHT22;23374;52.758;6.872;2023-04-24T12:23:01;10.10;99.90
37530;DHT22;23374;52.758;6.872;2023-04-24T12:25:33;10.10;74.40
37530;DHT22;23374;52.758;6.872;2023-04-24T12:28:11;10.10;1.00
37530;DHT22;23374;52.758;6.872;2023-04-24T12:30:44;10.00;1.00
37530;DHT22;23374;52.758;6.872;2023-04-24T12:33:05;9.90;99.90
37530;DHT22;23374;52.758;6.872;2023-04-24T12:35:28;9.90;99.90
37530;DHT22;23374;52.758;6.872;2023-04-24T12:37:49;9.90;99.90
37530;DHT22;23374;52.758;6.872;2023-04-24T12:40:11;9.90;99.90
37530;DHT22;23374;52.758;6.872;2023-04-24T12:42:32;9.90;1.00
37530;DHT22;23374;52.758;6.872;2023-04-24T12:44:58;9.80;1.00
37530;DHT22;23374;52.758;6.872;2023-04-24T12:47:22;9.70;99.90
37530;DHT22;23374;52.758;6.872;2023-04-24T12:49:42;9.70;1.00
37530;DHT22;23374;52.758;6.872;2023-04-24T12:52:02;9.80;1.00
37530;DHT22;23374;52.758;6.872;2023-04-24T12:54:22;9.80;1.00
37530;DHT22;23374;52.758;6.872;2023-04-24T12:56:43;9.80;1.00
37530;DHT22;23374;52.758;6.872;2023-04-24T12:59:04;9.80;1.00
37530;DHT22;23374;52.758;6.872;2023-04-24T13:01:24;9.80;1.00
37530;DHT22;23374;52.758;6.872;2023-04-24T13:03:45;9.70;17.10
37530;DHT22;23374;52.758;6.872;2023-04-24T13:06:05;9.60;99.90
37530;DHT22;23374;52.758;6.872;2023-04-24T13:08:26;9.50;99.90
37530;DHT22;23374;52.758;6.872;2023-04-24T13:10:46;9.40;1.00
37530;DHT22;23374;52.758;6.872;2023-04-24T13:13:06;9.40;99.90
37530;DHT22;23374;52.758;6.872;2023-04-24T13:15:27;9.40;99.90
37530;DHT22;23374;52.758;6.872;2023-04-24T13:17:47;9.40;99.90
37530;DHT22;23374;52.758;6.872;2023-04-24T13:20:08;9.50;1.00
37530;DHT22;23374;52.758;6.872;2023-04-24T13:22:28;9.60;1.00
37530;DHT22;23374;52.758;6.872;2023-04-24T13:24:49;9.70;1.00
37530;DHT22;23374;52.758;6.872;2023-04-24T13:27:10;9.70;99.90
37530;DHT22;23374;52.758;6.872;2023-04-24T13:29:30;9.80;99.90
37530;DHT22;23374;52.758;6.872;2023-04-24T13:31:51;9.90;1.00
37530;DHT22;23374;52.758;6.872;2023-04-24T13:34:14;9.80;1.00
37530;DHT22;23374;52.758;6.872;2023-04-24T13:36:35;9.80;1.00
37530;DHT22;23374;52.758;6.872;2023-04-24T13:38:55;9.70;99.90
37530;DHT22;23374;52.758;6.872;2023-04-24T13:41:16;9.60;1.00
37530;DHT22;23374;52.758;6.872;2023-04-24T13:43:36;9.60;99.90
37530;DHT22;23374;52.758;6.872;2023-04-24T13:45:57;9.60;99.90
37530;DHT22;23374;52.758;6.872;2023-04-24T13:48:19;9.60;99.90
37530;DHT22;23374;52.758;6.872;2023-04-24T13:50:39;9.60;1.00
37530;DHT22;23374;52.758;6.872;2023-04-24T13:52:59;9.60;1.00
37530;DHT22;23374;52.758;6.872;2023-04-24T13:55:21;9.60;1.00
37530;DHT22;23374;52.758;6.872;2023-04-24T13:57:41;9.70;1.00
37530;DHT22;23374;52.758;6.872;2023-04-24T14:00:02;9.70;1.00
37530;DHT22;23374;52.758;6.872;2023-04-24T14:02:24;9.70;1.00
37530;DHT22;23374;52.758;6.872;2023-04-24T14:04:44;9.70;1.00
37530;DHT22;23374;52.758;6.872;2023-04-24T14:07:04;9.70;1.00
37530;DHT22;23374;52.758;6.872;2023-04-24T14:09:24;9.70;1.00
37530;DHT22;23374;52.758;6.872;2023-04-24T14:11:45;9.70;1.00
37530;DHT22;23374;52.758;6.872;2023-04-24T14:14:05;9.70;1.00
37530;DHT22;23374;52.758;6.872;2023-04-24T14:16:26;9.60;99.90
37530;DHT22;23374;52.758;6.872;2023-04-24T14:18:46;9.60;99.90
37530;DHT22;23374;52.758;6.872;2023-04-24T14:21:07;9.60;1.00
37530;DHT22;23374;52.758;6.872;2023-04-24T14:23:28;9.50;1.00
37530;DHT22;23374;52.758;6.872;2023-04-24T14:25:48;9.50;1.00
37530;DHT22;23374;52.758;6.872;2023-04-24T14:28:11;9.40;21.10
37530;DHT22;23374;52.758;6.872;2023-04-24T14:30:31;9.40;99.90
37530;DHT22;23374;52.758;6.872;2023-04-24T14:32:52;9.30;99.90
37530;DHT22;23374;52.758;6.872;2023-04-24T14:35:12;9.30;99.90
37530;DHT22;23374;52.758;6.872;2023-04-24T14:37:33;9.20;99.90
37530;DHT22;23374;52.758;6.872;2023-04-24T14:39:54;9.20;99.90
37530;DHT22;23374;52.758;6.872;2023-04-24T14:42:14;9.20;99.90
37530;DHT22;23374;52.758;6.872;2023-04-24T14:44:36;9.10;99.90
37530;DHT22;23374;52.758;6.872;2023-04-24T14:46:57;9.10;1.00
37530;DHT22;23374;52.758;6.872;2023-04-24T14:49:17;9.00;1.00
37530;DHT22;23374;52.758;6.872;2023-04-24T14:51:37;9.00;1.00
37530;DHT22;23374;52.758;6.872;2023-04-24T14:53:58;9.00;1.00
37530;DHT22;23374;52.758;6.872;2023-04-24T14:56:18;9.10;1.00
37530;DHT22;23374;52.758;6.872;2023-04-24T14:58:39;9.00;1.00
37530;DHT22;23374;52.758;6.872;2023-04-24T15:00:59;9.00;1.00
37530;DHT22;23374;52.758;6.872;2023-04-24T15:03:20;9.10;1.00
37530;DHT22;23374;52.758;6.872;2023-04-24T15:05:41;9.10;1.00
37530;DHT22;23374;52.758;6.872;2023-04-24T15:08:02;9.20;1.00
37530;DHT22;23374;52.758;6.872;2023-04-24T15:10:22;9.20;1.00
37530;DHT22;23374;52.758;6.872;2023-04-24T15:12:44;9.20;1.00
37530;DHT22;23374;52.758;6.872;2023-04-24T15:15:06;9.30;99.90
37530;DHT22;23374;52.758;6.872;2023-04-24T15:17:27;9.30;99.90